createdAt,value
2018-10-01T00:02:21.525Z,77.00
2018-10-01T00:04:51.134Z,77.10
2018-10-01T00:07:20.750Z,77.10
2018-10-01T00:09:50.377Z,77.20
2018-10-01T00:12:20.054Z,77.80
2018-10-01T00:14:49.704Z,77.40
2018-10-01T00:17:19.333Z,77.50
2018-10-01T00:19:54.080Z,77.60
2018-10-01T00:22:28.768Z,77.60
2018-10-01T00:24:58.378Z,77.70
2018-10-01T00:27:27.989Z,77.80
2018-10-01T00:29:57.603Z,78.00
2018-10-01T00:32:27.250Z,78.10
2018-10-01T00:34:56.866Z,78.00
2018-10-01T00:37:26.504Z,78.10
2018-10-01T00:39:56.121Z,78.20
2018-10-01T00:42:25.742Z,78.20
2018-10-01T00:44:55.348Z,78.30
2018-10-01T00:47:24.959Z,78.40
2018-10-01T00:49:54.569Z,78.50
2018-10-01T00:52:24.239Z,78.60
2018-10-01T00:54:53.857Z,78.60
2018-10-01T00:57:23.466Z,78.70
2018-10-01T00:59:53.097Z,78.90
2018-10-01T01:02:22.713Z,79.10
2018-10-01T01:04:52.326Z,79.10
2018-10-01T01:07:21.931Z,79.10
2018-10-01T01:09:51.535Z,79.10
2018-10-01T01:12:21.172Z,79.20
2018-10-01T01:14:50.873Z,79.30
2018-10-01T01:17:20.490Z,79.40
2018-10-01T01:19:50.138Z,79.40
2018-10-01T01:22:19.793Z,79.50
2018-10-01T01:24:49.413Z,79.70
2018-10-01T01:27:19.043Z,79.80
2018-10-01T01:29:48.650Z,79.80
2018-10-01T01:32:18.271Z,80.00
2018-10-01T01:34:47.978Z,80.00
2018-10-01T01:37:17.633Z,79.90
2018-10-01T01:39:47.408Z,79.90
2018-10-01T01:42:17.015Z,80.00
2018-10-01T01:44:46.595Z,80.10
2018-10-01T01:47:16.238Z,80.20
2018-10-01T01:49:45.835Z,80.40
2018-10-01T01:52:15.437Z,80.40
2018-10-01T01:54:45.033Z,80.50
2018-10-01T01:57:14.661Z,80.80
2018-10-01T01:59:44.271Z,80.90
2018-10-01T02:02:13.871Z,81.00
2018-10-01T02:04:43.457Z,81.00
2018-10-01T02:07:13.052Z,80.90
2018-10-01T02:09:42.677Z,81.00
2018-10-01T02:12:13.162Z,81.10
2018-10-01T02:14:42.764Z,81.10
2018-10-01T02:17:12.540Z,81.20
2018-10-01T02:19:42.148Z,81.10
2018-10-01T02:22:11.731Z,81.20
2018-10-01T02:24:41.328Z,81.20
2018-10-01T02:27:10.925Z,81.40
2018-10-01T02:29:40.555Z,81.40
2018-10-01T02:32:10.191Z,81.50
2018-10-01T02:34:39.795Z,81.70
2018-10-01T02:37:09.399Z,81.80
2018-10-01T02:39:39.016Z,81.90
2018-10-01T02:42:08.623Z,82.00
2018-10-01T02:44:38.234Z,82.10
2018-10-01T02:47:07.878Z,82.00
2018-10-01T02:49:37.496Z,82.10
2018-10-01T02:52:12.399Z,82.20
2018-10-01T02:54:42.035Z,82.30
2018-10-01T02:57:11.650Z,82.30
2018-10-01T02:59:41.336Z,82.30
2018-10-01T03:02:10.929Z,82.40
2018-10-01T03:04:40.536Z,82.40
2018-10-01T03:07:10.125Z,83.10
2018-10-01T03:09:39.731Z,82.40
2018-10-01T03:12:09.330Z,82.40
2018-10-01T03:14:38.935Z,82.50
2018-10-01T03:17:08.567Z,82.50
2018-10-01T03:19:38.148Z,82.70
2018-10-01T03:22:07.771Z,82.80
2018-10-01T03:24:37.380Z,82.90
2018-10-01T03:27:06.990Z,82.90
2018-10-01T03:29:36.640Z,83.10
2018-10-01T03:32:06.277Z,83.10
2018-10-01T03:34:35.892Z,83.10
2018-10-01T03:37:05.500Z,83.10
2018-10-01T03:39:35.106Z,83.10
2018-10-01T03:42:04.710Z,83.20
2018-10-01T03:44:34.309Z,83.20
2018-10-01T03:47:04.023Z,83.30
2018-10-01T03:49:33.632Z,83.30
2018-10-01T03:52:03.277Z,83.10
2018-10-01T03:54:32.907Z,83.20
2018-10-01T03:57:02.503Z,83.20
2018-10-01T03:59:32.091Z,83.30
2018-10-01T04:02:01.719Z,83.40
2018-10-01T04:04:31.318Z,83.30
2018-10-01T04:07:00.923Z,83.20
2018-10-01T04:09:30.528Z,83.00
2018-10-01T04:12:00.147Z,83.00
2018-10-01T04:14:29.764Z,83.00
2018-10-01T04:16:59.387Z,82.90
2018-10-01T04:19:28.996Z,82.60
2018-10-01T04:21:58.630Z,83.10
2018-10-01T04:24:28.244Z,83.20
2018-10-01T04:26:57.834Z,83.30
2018-10-01T04:29:27.440Z,83.30
2018-10-01T04:31:57.035Z,83.30
2018-10-01T04:34:26.718Z,83.20
2018-10-01T04:36:56.621Z,83.30
2018-10-01T04:39:26.226Z,83.30
2018-10-01T04:41:55.871Z,83.40
2018-10-01T04:44:25.469Z,83.50
2018-10-01T04:46:55.161Z,83.50
2018-10-01T04:49:24.720Z,83.60
2018-10-01T04:51:54.336Z,83.50
2018-10-01T04:54:23.957Z,83.60
2018-10-01T04:56:53.557Z,83.70
2018-10-01T04:59:23.163Z,83.80
2018-10-01T05:01:52.764Z,83.80
2018-10-01T05:04:22.415Z,83.80
2018-10-01T05:06:52.049Z,83.80
2018-10-01T05:09:21.643Z,83.80
2018-10-01T05:11:51.276Z,83.80
2018-10-01T05:14:20.870Z,83.80
2018-10-01T05:16:50.458Z,83.70
2018-10-01T05:19:20.121Z,83.60
2018-10-01T05:21:49.735Z,83.90
2018-10-01T05:24:19.341Z,83.80
2018-10-01T05:26:48.946Z,83.80
2018-10-01T05:29:18.556Z,83.60
2018-10-01T05:31:48.228Z,83.60
2018-10-01T05:34:17.819Z,83.50
2018-10-01T05:36:47.411Z,83.40
2018-10-01T05:39:17.033Z,83.40
2018-10-01T05:41:46.639Z,83.10
2018-10-01T05:44:16.288Z,83.00
2018-10-01T05:46:45.897Z,82.70
2018-10-01T05:49:15.562Z,82.60
2018-10-01T05:51:45.233Z,82.30
2018-10-01T05:54:14.825Z,82.10
2018-10-01T05:56:44.479Z,81.70
2018-10-01T05:59:16.644Z,81.50
2018-10-01T06:01:46.354Z,81.50
2018-10-01T06:04:15.965Z,81.40
2018-10-01T06:06:45.568Z,81.20
2018-10-01T06:09:15.185Z,80.90
2018-10-01T06:11:44.820Z,80.50
2018-10-01T06:14:14.495Z,80.00
2018-10-01T06:16:44.088Z,80.00
2018-10-01T06:19:13.775Z,79.60
2018-10-01T06:21:43.497Z,79.50
2018-10-01T06:24:13.123Z,79.10
2018-10-01T06:26:42.717Z,78.50
2018-10-01T06:29:12.312Z,78.20
2018-10-01T06:31:41.902Z,77.40
2018-10-01T06:34:11.493Z,77.60
2018-10-01T06:36:41.116Z,77.00
2018-10-01T06:39:11.730Z,76.30
2018-10-01T06:41:41.454Z,75.80
2018-10-01T06:44:11.016Z,75.30
2018-10-01T06:46:40.607Z,75.20
2018-10-01T06:49:10.205Z,74.70
2018-10-01T06:51:39.878Z,74.20
2018-10-01T06:54:09.479Z,73.70
2018-10-01T06:56:39.088Z,73.30
2018-10-01T06:59:08.693Z,73.30
2018-10-01T07:01:38.300Z,72.90
2018-10-01T07:04:07.903Z,72.50
2018-10-01T07:06:37.510Z,72.20
2018-10-01T07:09:08.949Z,71.90
2018-10-01T07:11:39.352Z,71.60
2018-10-01T07:14:08.939Z,71.50
2018-10-01T07:16:38.620Z,71.30
2018-10-01T07:19:08.224Z,71.10
2018-10-01T07:21:37.817Z,70.90
2018-10-01T07:24:07.540Z,70.40
2018-10-01T07:26:37.206Z,69.80
2018-10-01T07:29:06.846Z,69.30
2018-10-01T07:31:36.450Z,69.00
2018-10-01T07:34:06.038Z,68.10
2018-10-01T07:36:35.624Z,67.70
2018-10-01T07:39:07.516Z,67.60
2018-10-01T07:41:37.144Z,67.20
2018-10-01T07:44:06.878Z,66.80
2018-10-01T07:46:36.493Z,66.00
2018-10-01T07:49:06.308Z,65.60
2018-10-01T07:51:36.320Z,65.20
2018-10-01T07:54:05.988Z,65.20
2018-10-01T07:56:35.609Z,64.70
2018-10-01T07:59:05.444Z,64.00
2018-10-01T08:01:35.075Z,63.30
2018-10-01T08:04:04.709Z,61.70
2018-10-01T08:06:34.304Z,61.10
2018-10-01T08:09:04.999Z,60.70
2018-10-01T08:11:34.664Z,60.30
2018-10-01T08:14:04.379Z,60.10
2018-10-01T08:16:34.044Z,59.60
2018-10-01T08:19:03.701Z,59.00
2018-10-01T08:21:33.743Z,58.70
2018-10-01T08:24:03.335Z,58.70
2018-10-01T08:26:33.006Z,58.40
2018-10-01T08:29:02.749Z,58.30
2018-10-01T08:31:32.650Z,58.50
2018-10-01T08:34:02.235Z,58.30
2018-10-01T08:36:31.823Z,58.00
2018-10-01T08:39:01.553Z,57.60
2018-10-01T08:41:31.157Z,57.80
2018-10-01T08:44:00.730Z,56.60
2018-10-01T08:46:30.399Z,56.40
2018-10-01T08:50:02.569Z,56.30
2018-10-01T08:52:56.410Z,56.40
2018-10-01T08:55:26.346Z,56.20
2018-10-01T08:57:55.987Z,55.70
2018-10-01T09:00:25.579Z,55.70
2018-10-01T09:02:55.175Z,55.70
2018-10-01T09:05:24.852Z,55.90
2018-10-01T09:07:54.487Z,55.40
2018-10-01T09:10:24.098Z,55.00
2018-10-01T09:12:53.678Z,54.90
2018-10-01T09:15:23.308Z,53.90
2018-10-01T09:17:52.942Z,53.30
2018-10-01T09:20:22.634Z,52.40
2018-10-01T09:22:52.235Z,51.80
2018-10-01T09:25:21.852Z,52.10
2018-10-01T09:27:51.452Z,51.80
2018-10-01T09:30:21.075Z,51.00
2018-10-01T09:32:50.676Z,50.90
2018-10-01T09:35:20.295Z,50.80
2018-10-01T09:37:49.921Z,50.50
2018-10-01T09:40:19.535Z,50.60
2018-10-01T09:42:49.150Z,49.30
2018-10-01T09:45:18.780Z,49.30
2018-10-01T09:47:48.723Z,48.50
2018-10-01T09:50:18.344Z,46.40
2018-10-01T09:52:47.968Z,45.70
2018-10-01T09:55:17.611Z,45.40
2018-10-01T09:57:47.210Z,44.40
2018-10-01T10:00:20.955Z,44.20
2018-10-01T10:02:50.577Z,44.10
2018-10-01T10:05:20.178Z,43.70
2018-10-01T10:07:49.811Z,43.20
2018-10-01T10:10:19.416Z,41.50
2018-10-01T10:12:49.030Z,40.50
2018-10-01T10:15:18.639Z,40.30
2018-10-01T10:17:48.315Z,40.60
2018-10-01T10:20:17.984Z,39.70
2018-10-01T10:22:47.558Z,39.30
2018-10-01T10:25:17.184Z,39.10
2018-10-01T10:27:46.772Z,39.10
2018-10-01T10:30:16.395Z,37.50
2018-10-01T10:32:46.051Z,36.80
2018-10-01T10:35:15.680Z,37.70
2018-10-01T10:37:45.323Z,37.30
2018-10-01T10:40:14.975Z,37.20
2018-10-01T10:42:44.573Z,36.80
2018-10-01T10:45:14.172Z,35.80
2018-10-01T10:47:43.756Z,36.50
2018-10-01T10:50:13.636Z,36.30
2018-10-01T10:52:43.451Z,35.40
2018-10-01T10:55:13.070Z,33.80
2018-10-01T10:57:42.673Z,34.10
2018-10-01T11:00:12.328Z,34.10
2018-10-01T11:02:41.932Z,34.30
2018-10-01T11:05:11.521Z,34.00
2018-10-01T11:07:41.127Z,33.60
2018-10-01T11:10:10.731Z,32.80
2018-10-01T11:12:40.332Z,33.30
2018-10-01T11:15:10.130Z,33.10
2018-10-01T11:17:39.647Z,33.40
2018-10-01T11:20:09.368Z,32.30
2018-10-01T11:22:38.887Z,32.50
2018-10-01T11:25:08.526Z,33.30
2018-10-01T11:27:38.197Z,32.40
2018-10-01T11:30:07.903Z,32.50
2018-10-01T11:32:37.537Z,31.90
2018-10-01T11:35:07.330Z,30.20
2018-10-01T11:37:36.832Z,30.20
2018-10-01T11:40:06.718Z,30.00
2018-10-01T11:42:36.363Z,30.60
2018-10-01T11:45:06.487Z,31.00
2018-10-01T11:47:36.119Z,29.50
2018-10-01T11:50:05.714Z,29.10
2018-10-01T11:52:35.372Z,29.50
2018-10-01T11:55:05.289Z,29.30
2018-10-01T11:57:34.923Z,28.70
2018-10-01T12:00:05.021Z,28.10
2018-10-01T12:02:34.636Z,28.20
2018-10-01T12:05:04.399Z,28.60
2018-10-01T12:07:34.281Z,29.00
2018-10-01T12:10:03.922Z,27.40
2018-10-01T12:12:33.557Z,27.10
2018-10-01T12:15:03.225Z,27.40
2018-10-01T12:17:32.788Z,27.60
2018-10-01T12:20:02.432Z,28.00
2018-10-01T12:22:32.044Z,28.20
2018-10-01T12:25:01.643Z,28.10
2018-10-01T12:27:31.322Z,27.70
2018-10-01T12:30:01.457Z,27.20
2018-10-01T12:32:31.060Z,26.50
2018-10-01T12:35:00.729Z,26.00
2018-10-01T12:37:30.466Z,26.00
2018-10-01T12:40:00.069Z,25.50
2018-10-01T12:42:29.835Z,23.40
2018-10-01T12:44:59.451Z,22.20
2018-10-01T12:47:29.044Z,22.00
2018-10-01T12:49:58.652Z,21.80
2018-10-01T12:52:28.265Z,21.20
2018-10-01T12:54:57.867Z,22.20
2018-10-01T12:57:27.529Z,22.60
2018-10-01T13:00:12.018Z,23.20
2018-10-01T13:02:42.580Z,23.50
2018-10-01T13:05:12.357Z,23.90
2018-10-01T13:07:42.099Z,23.90
2018-10-01T13:10:11.708Z,24.50
2018-10-01T13:12:41.366Z,24.20
2018-10-01T13:15:11.076Z,23.30
2018-10-01T13:17:40.726Z,23.70
2018-10-01T13:20:10.990Z,24.70
2018-10-01T13:22:40.654Z,25.00
2018-10-01T13:25:10.325Z,25.90
2018-10-01T13:27:40.096Z,25.70
2018-10-01T13:30:10.011Z,25.50
2018-10-01T13:32:39.827Z,25.30
2018-10-01T13:35:09.493Z,25.30
2018-10-01T13:37:39.091Z,26.00
2018-10-01T13:40:08.746Z,26.70
2018-10-01T13:42:38.374Z,27.90
2018-10-01T13:45:08.019Z,28.00
2018-10-01T13:47:38.055Z,28.40
2018-10-01T13:50:08.048Z,29.00
2018-10-01T13:52:37.687Z,28.50
2018-10-01T13:55:07.358Z,28.40
2018-10-01T13:57:36.953Z,29.00
2018-10-01T14:00:06.920Z,28.70
2018-10-01T14:02:36.523Z,27.90
2018-10-01T14:05:06.178Z,27.80
2018-10-01T14:07:35.776Z,28.00
2018-10-01T14:10:05.416Z,28.40
2018-10-01T14:12:35.048Z,29.30
2018-10-01T14:15:04.808Z,30.40
2018-10-01T14:17:34.640Z,30.50
2018-10-01T14:20:04.374Z,31.30
2018-10-01T14:22:33.895Z,32.10
2018-10-01T14:25:03.881Z,33.20
2018-10-01T14:27:33.539Z,33.80
2018-10-01T14:30:03.169Z,34.60
2018-10-01T14:32:32.812Z,35.00
2018-10-01T14:35:02.411Z,35.30
2018-10-01T14:37:32.169Z,35.00
2018-10-01T14:40:01.782Z,35.60
2018-10-01T14:42:31.454Z,36.00
2018-10-01T14:45:01.024Z,36.10
2018-10-01T14:47:30.603Z,36.30
2018-10-01T14:50:00.188Z,36.20
2018-10-01T14:52:29.764Z,36.50
2018-10-01T14:54:59.360Z,37.10
2018-10-01T14:57:28.955Z,37.50
2018-10-01T14:59:58.599Z,37.40
2018-10-01T15:02:28.254Z,37.80
2018-10-01T15:04:57.900Z,38.20
2018-10-01T15:07:27.500Z,38.00
2018-10-01T15:09:57.247Z,38.50
2018-10-01T15:12:27.286Z,39.00
2018-10-01T15:14:56.903Z,38.80
2018-10-01T15:17:26.509Z,38.70
2018-10-01T15:19:56.095Z,38.80
2018-10-01T15:22:25.774Z,38.70
2018-10-01T15:24:55.324Z,39.70
2018-10-01T15:27:24.911Z,39.70
2018-10-01T15:29:54.569Z,40.10
2018-10-01T15:32:24.200Z,40.50
2018-10-01T15:34:53.792Z,40.50
2018-10-01T15:37:23.395Z,40.90
2018-10-01T15:39:52.987Z,41.20
2018-10-01T15:42:22.571Z,41.60
2018-10-01T15:44:52.220Z,41.50
2018-10-01T15:47:21.840Z,42.10
2018-10-01T15:49:51.563Z,42.70
2018-10-01T15:52:21.165Z,43.80
2018-10-01T15:54:50.764Z,44.70
2018-10-01T15:57:20.355Z,45.20
2018-10-01T15:59:49.951Z,45.60
2018-10-01T16:02:19.568Z,46.10
2018-10-01T16:04:49.171Z,46.40
2018-10-01T16:07:18.760Z,46.60
2018-10-01T16:09:48.351Z,47.30
2018-10-01T16:12:17.950Z,48.10
2018-10-01T16:14:47.560Z,48.50
2018-10-01T16:17:17.300Z,49.20
2018-10-01T16:19:46.899Z,49.80
2018-10-01T16:22:16.541Z,50.70
2018-10-01T16:24:46.177Z,51.30
2018-10-01T16:27:15.795Z,52.20
2018-10-01T16:29:45.411Z,52.60
2018-10-01T16:32:15.057Z,52.70
2018-10-01T16:34:44.655Z,53.20
2018-10-01T16:37:14.376Z,53.50
2018-10-01T16:39:44.032Z,54.10
2018-10-01T16:42:13.711Z,54.60
2018-10-01T16:44:43.353Z,54.10
2018-10-01T16:47:12.958Z,54.50
2018-10-01T16:49:42.577Z,55.20
2018-10-01T16:52:12.257Z,55.70
2018-10-01T16:54:41.860Z,55.90
2018-10-01T16:57:11.479Z,56.00
2018-10-01T16:59:41.080Z,56.50
2018-10-01T17:02:10.700Z,57.00
2018-10-01T17:04:40.315Z,57.30
2018-10-01T17:07:09.952Z,56.50
2018-10-01T17:09:39.562Z,57.30
2018-10-01T17:12:09.179Z,58.00
2018-10-01T17:14:38.775Z,58.80
2018-10-01T17:17:08.415Z,59.00
2018-10-01T17:19:39.002Z,58.90
2018-10-01T17:22:08.630Z,58.90
2018-10-01T17:24:38.237Z,58.90
2018-10-01T17:27:07.853Z,59.90
2018-10-01T17:29:37.444Z,61.50
2018-10-01T17:32:07.397Z,62.50
2018-10-01T17:34:37.025Z,63.10
2018-10-01T17:37:06.744Z,63.00
2018-10-01T17:39:36.351Z,63.60
2018-10-01T17:42:05.971Z,64.20
2018-10-01T17:44:35.575Z,64.60
2018-10-01T17:47:05.216Z,64.10
2018-10-01T17:49:34.815Z,63.60
2018-10-01T17:52:04.434Z,63.60
2018-10-01T17:54:34.049Z,64.00
2018-10-01T17:57:05.410Z,63.80
2018-10-01T17:59:35.044Z,64.00
2018-10-01T18:02:04.762Z,64.20
2018-10-01T18:04:34.404Z,64.70
2018-10-01T18:07:04.032Z,65.00
2018-10-01T18:09:33.799Z,65.40
2018-10-01T18:12:03.614Z,65.80
2018-10-01T18:14:33.664Z,66.20
2018-10-01T18:17:03.353Z,66.80
2018-10-01T18:19:32.945Z,67.30
2018-10-01T18:22:02.723Z,67.70
2018-10-01T18:24:32.328Z,68.20
2018-10-01T18:27:01.951Z,69.00
2018-10-01T18:29:31.544Z,69.40
2018-10-01T18:32:01.323Z,69.60
2018-10-01T18:34:30.946Z,69.80
2018-10-01T18:37:00.547Z,70.20
2018-10-01T18:39:31.335Z,70.40
2018-10-01T18:42:01.057Z,70.70
2018-10-01T18:44:30.636Z,71.10
2018-10-01T18:47:00.290Z,71.30
2018-10-01T18:49:29.907Z,71.50
2018-10-01T18:51:59.540Z,72.00
2018-10-01T18:54:29.146Z,72.30
2018-10-01T18:56:58.760Z,72.70
2018-10-01T18:59:28.370Z,72.90
2018-10-01T19:01:57.995Z,73.10
2018-10-01T19:04:27.587Z,73.60
2018-10-01T19:06:57.219Z,74.00
2018-10-01T19:09:26.814Z,74.90
2018-10-01T19:11:56.511Z,75.10
2018-10-01T19:14:26.071Z,75.60
2018-10-01T19:16:55.683Z,76.00
2018-10-01T19:19:25.310Z,76.30
2018-10-01T19:21:54.958Z,76.70
2018-10-01T19:24:24.601Z,77.00
2018-10-01T19:26:54.331Z,77.10
2018-10-01T19:29:23.883Z,77.20
2018-10-01T19:31:53.485Z,77.50
2018-10-01T19:34:23.176Z,77.80
2018-10-01T19:36:52.848Z,77.90
2018-10-01T19:39:22.543Z,77.80
2018-10-01T19:41:52.135Z,77.80
2018-10-01T19:44:21.730Z,77.80
2018-10-01T19:46:51.436Z,77.70
2018-10-01T19:49:21.031Z,77.80
2018-10-01T19:51:50.623Z,78.00
2018-10-01T19:54:20.203Z,78.00
2018-10-01T19:56:49.832Z,78.40
2018-10-01T19:59:19.522Z,78.40
2018-10-01T20:01:49.132Z,78.50
2018-10-01T20:04:18.743Z,78.40
2018-10-01T20:06:48.352Z,78.60
2018-10-01T20:09:18.020Z,78.20
2018-10-01T20:11:47.604Z,78.10
2018-10-01T20:14:17.237Z,78.20
2018-10-01T20:16:46.866Z,77.90
2018-10-01T20:19:16.486Z,78.20
2018-10-01T20:21:46.107Z,78.50
2018-10-01T20:24:15.785Z,78.70
2018-10-01T20:26:45.436Z,78.80
2018-10-01T20:29:15.355Z,78.60
2018-10-01T20:31:44.768Z,78.80
2018-10-01T20:34:14.372Z,79.20
2018-10-01T20:36:44.032Z,79.30
2018-10-01T20:39:13.648Z,79.60
2018-10-01T20:41:43.334Z,80.00
2018-10-01T20:44:12.962Z,80.30
2018-10-01T20:46:42.598Z,80.30
2018-10-01T20:49:12.211Z,80.60
2018-10-01T20:51:41.801Z,80.50
2018-10-01T20:54:11.407Z,80.70
2018-10-01T20:56:41.015Z,80.60
2018-10-01T20:59:10.638Z,81.20
2018-10-01T21:01:40.305Z,81.00
2018-10-01T21:04:09.900Z,80.60
2018-10-01T21:06:39.631Z,80.60
2018-10-01T21:09:11.145Z,80.70
2018-10-01T21:11:41.005Z,80.80
2018-10-01T21:14:11.169Z,80.80
2018-10-01T21:16:40.831Z,81.20
2018-10-01T21:19:10.436Z,81.50
2018-10-01T21:21:40.042Z,81.40
2018-10-01T21:24:09.635Z,81.60
2018-10-01T21:26:39.357Z,81.50
2018-10-01T21:29:09.052Z,81.60
2018-10-01T21:31:38.649Z,81.70
2018-10-01T21:34:08.394Z,81.80
2018-10-01T21:36:38.048Z,81.80
2018-10-01T21:39:09.662Z,81.10
2018-10-01T21:41:39.296Z,81.30
2018-10-01T21:44:08.907Z,81.50
2018-10-01T21:46:38.507Z,80.90
2018-10-01T21:49:08.124Z,81.00
2018-10-01T21:51:37.728Z,81.00
2018-10-01T21:54:07.355Z,80.70
2018-10-01T21:56:36.947Z,80.70
2018-10-01T21:59:06.559Z,80.90
2018-10-01T22:01:38.078Z,80.80
2018-10-01T22:04:07.759Z,80.80
2018-10-01T22:06:37.363Z,81.10
2018-10-01T22:09:08.131Z,80.70
2018-10-01T22:11:37.913Z,80.80
2018-10-01T22:14:07.887Z,81.00
2018-10-01T22:16:37.487Z,81.50
2018-10-01T22:19:07.112Z,81.50
2018-10-01T22:21:36.744Z,81.60
2018-10-01T22:24:06.503Z,81.50
2018-10-01T22:26:36.095Z,81.30
2018-10-01T22:29:05.731Z,81.60
2018-10-01T22:31:35.320Z,81.70
2018-10-01T22:34:04.908Z,81.60
2018-10-01T22:36:34.515Z,82.20
2018-10-01T22:39:09.927Z,82.50
2018-10-01T22:41:39.726Z,82.80
2018-10-01T22:44:09.427Z,83.00
2018-10-01T22:46:39.184Z,83.30
2018-10-01T22:49:08.899Z,83.30
2018-10-01T22:51:38.515Z,83.70
2018-10-01T22:54:08.134Z,83.80
2018-10-01T22:56:37.785Z,83.90
2018-10-01T22:59:07.389Z,84.30
2018-10-01T23:01:37.041Z,84.60
2018-10-01T23:04:06.648Z,84.90
2018-10-01T23:06:36.290Z,85.20
2018-10-01T23:09:07.320Z,85.30
2018-10-01T23:11:37.224Z,85.60
2018-10-01T23:14:06.841Z,86.00
2018-10-01T23:16:36.444Z,86.20
2018-10-01T23:19:07.022Z,86.40
2018-10-01T23:21:36.664Z,86.60
2018-10-01T23:24:06.299Z,86.70
2018-10-01T23:26:35.895Z,86.80
2018-10-01T23:29:05.547Z,87.10
2018-10-01T23:31:35.140Z,87.40
2018-10-01T23:34:04.753Z,87.50
2018-10-01T23:36:34.355Z,87.60
2018-10-01T23:39:04.956Z,87.80
2018-10-01T23:41:34.576Z,87.90
2018-10-01T23:44:04.184Z,88.00
2018-10-01T23:46:33.775Z,87.90
2018-10-01T23:49:03.436Z,87.80
2018-10-01T23:51:33.052Z,87.90
2018-10-01T23:54:02.689Z,88.00
2018-10-01T23:56:32.356Z,88.30
2018-10-01T23:59:01.952Z,88.20
